sensor_id;sensor_type;location;lat;lon;timestamp;temperature;humidity
47414;DHT22;33163;0.000;0.000;2023-07-09T00:00:39;23.60;72.40
47414;DHT22;33163;0.000;0.000;2023-07-09T00:03:06;23.60;72.20
47414;DHT22;33163;0.000;0.000;2023-07-09T00:05:33;23.60;72.20
47414;DHT22;33163;0.000;0.000;2023-07-09T00:07:59;23.60;72.20
47414;DHT22;33163;0.000;0.000;2023-07-09T00:10:27;23.60;72.10
47414;DHT22;33163;0.000;0.000;2023-07-09T00:12:53;23.60;72.10
47414;DHT22;33163;0.000;0.000;2023-07-09T00:15:20;23.60;72.20
47414;DHT22;33163;0.000;0.000;2023-07-09T00:17:48;23.60;72.00
47414;DHT22;33163;0.000;0.000;2023-07-09T00:20:17;23.60;72.00
47414;DHT22;33163;0.000;0.000;2023-07-09T00:22:45;23.60;72.10
47414;DHT22;33163;0.000;0.000;2023-07-09T00:25:13;23.60;72.10
47414;DHT22;33163;0.000;0.000;2023-07-09T00:27:42;23.60;72.10
47414;DHT22;33163;0.000;0.000;2023-07-09T00:30:16;23.60;72.10
47414;DHT22;33163;0.000;0.000;2023-07-09T00:32:43;23.60;72.10
47414;DHT22;33163;0.000;0.000;2023-07-09T00:35:11;23.60;72.10
47414;DHT22;33163;0.000;0.000;2023-07-09T00:37:41;23.60;72.10
47414;DHT22;33163;0.000;0.000;2023-07-09T00:40:14;23.60;72.00
47414;DHT22;33163;0.000;0.000;2023-07-09T00:42:44;23.60;72.00
47414;DHT22;33163;0.000;0.000;2023-07-09T00:45:19;23.60;72.00
47414;DHT22;33163;0.000;0.000;2023-07-09T00:47:49;23.60;72.00
47414;DHT22;33163;0.000;0.000;2023-07-09T00:50:32;23.60;72.00
47414;DHT22;33163;0.000;0.000;2023-07-09T00:53:03;23.60;72.00
47414;DHT22;33163;0.000;0.000;2023-07-09T00:55:36;23.60;72.10
47414;DHT22;33163;0.000;0.000;2023-07-09T00:58:08;23.60;72.10
47414;DHT22;33163;0.000;0.000;2023-07-09T01:00:40;23.60;72.00
47414;DHT22;33163;0.000;0.000;2023-07-09T01:03:15;23.60;72.10
47414;DHT22;33163;0.000;0.000;2023-07-09T01:05:46;23.50;71.90
47414;DHT22;33163;0.000;0.000;2023-07-09T01:08:17;23.60;72.00
47414;DHT22;33163;0.000;0.000;2023-07-09T01:10:44;23.50;71.90
47414;DHT22;33163;0.000;0.000;2023-07-09T01:13:11;23.60;71.90
47414;DHT22;33163;0.000;0.000;2023-07-09T01:15:38;23.60;71.90
47414;DHT22;33163;0.000;0.000;2023-07-09T01:18:05;23.50;71.80
47414;DHT22;33163;0.000;0.000;2023-07-09T01:20:34;23.60;71.90
47414;DHT22;33163;0.000;0.000;2023-07-09T01:23:02;23.60;71.90
47414;DHT22;33163;0.000;0.000;2023-07-09T01:25:32;23.50;71.90
47414;DHT22;33163;0.000;0.000;2023-07-09T01:27:58;23.60;72.10
47414;DHT22;33163;0.000;0.000;2023-07-09T01:30:30;23.50;72.00
47414;DHT22;33163;0.000;0.000;2023-07-09T01:32:59;23.50;72.10
47414;DHT22;33163;0.000;0.000;2023-07-09T01:35:27;23.60;72.10
47414;DHT22;33163;0.000;0.000;2023-07-09T01:37:55;23.50;72.10
47414;DHT22;33163;0.000;0.000;2023-07-09T01:40:25;23.50;72.10
47414;DHT22;33163;0.000;0.000;2023-07-09T01:42:53;23.50;72.10
47414;DHT22;33163;0.000;0.000;2023-07-09T01:45:21;23.50;72.10
47414;DHT22;33163;0.000;0.000;2023-07-09T01:47:49;23.50;72.10
47414;DHT22;33163;0.000;0.000;2023-07-09T01:50:16;23.50;72.10
47414;DHT22;33163;0.000;0.000;2023-07-09T01:52:44;23.50;72.10
47414;DHT22;33163;0.000;0.000;2023-07-09T01:55:13;23.50;72.10
47414;DHT22;33163;0.000;0.000;2023-07-09T01:57:43;23.50;72.10
47414;DHT22;33163;0.000;0.000;2023-07-09T02:00:13;23.50;72.10
47414;DHT22;33163;0.000;0.000;2023-07-09T02:02:40;23.50;72.20
47414;DHT22;33163;0.000;0.000;2023-07-09T02:05:18;23.50;72.20
47414;DHT22;33163;0.000;0.000;2023-07-09T02:07:59;23.50;72.10
47414;DHT22;33163;0.000;0.000;2023-07-09T02:10:26;23.50;72.20
47414;DHT22;33163;0.000;0.000;2023-07-09T02:12:54;23.50;72.20
47414;DHT22;33163;0.000;0.000;2023-07-09T02:15:21;23.50;72.30
47414;DHT22;33163;0.000;0.000;2023-07-09T02:17:48;23.50;72.20
47414;DHT22;33163;0.000;0.000;2023-07-09T02:20:15;23.50;72.20
47414;DHT22;33163;0.000;0.000;2023-07-09T02:22:42;23.50;72.20
47414;DHT22;33163;0.000;0.000;2023-07-09T02:25:09;23.50;72.20
47414;DHT22;33163;0.000;0.000;2023-07-09T02:27:36;23.50;72.20
47414;DHT22;33163;0.000;0.000;2023-07-09T02:30:06;23.50;72.10
47414;DHT22;33163;0.000;0.000;2023-07-09T02:32:33;23.50;72.20
47414;DHT22;33163;0.000;0.000;2023-07-09T02:35:00;23.50;72.20
47414;DHT22;33163;0.000;0.000;2023-07-09T02:37:27;23.50;72.20
47414;DHT22;33163;0.000;0.000;2023-07-09T02:39:54;23.50;72.20
47414;DHT22;33163;0.000;0.000;2023-07-09T02:42:22;23.50;72.20
47414;DHT22;33163;0.000;0.000;2023-07-09T02:44:49;23.50;72.40
47414;DHT22;33163;0.000;0.000;2023-07-09T02:47:18;23.50;72.40
47414;DHT22;33163;0.000;0.000;2023-07-09T02:49:45;23.50;72.40
47414;DHT22;33163;0.000;0.000;2023-07-09T02:52:12;23.50;72.40
47414;DHT22;33163;0.000;0.000;2023-07-09T02:54:39;23.50;72.40
47414;DHT22;33163;0.000;0.000;2023-07-09T02:57:06;23.50;72.30
47414;DHT22;33163;0.000;0.000;2023-07-09T02:59:33;23.50;72.30
47414;DHT22;33163;0.000;0.000;2023-07-09T03:02:00;23.50;72.40
47414;DHT22;33163;0.000;0.000;2023-07-09T03:04:29;23.50;72.40
47414;DHT22;33163;0.000;0.000;2023-07-09T03:06:56;23.50;72.40
47414;DHT22;33163;0.000;0.000;2023-07-09T03:09:23;23.50;72.50
47414;DHT22;33163;0.000;0.000;2023-07-09T03:11:50;23.50;72.50
47414;DHT22;33163;0.000;0.000;2023-07-09T03:14:17;23.50;72.50
47414;DHT22;33163;0.000;0.000;2023-07-09T03:16:43;23.50;72.50
47414;DHT22;33163;0.000;0.000;2023-07-09T03:19:11;23.40;72.50
47414;DHT22;33163;0.000;0.000;2023-07-09T03:21:39;23.40;72.50
47414;DHT22;33163;0.000;0.000;2023-07-09T03:24:06;23.50;72.50
47414;DHT22;33163;0.000;0.000;2023-07-09T03:26:33;23.50;72.60
47414;DHT22;33163;0.000;0.000;2023-07-09T03:29:00;23.50;72.60
47414;DHT22;33163;0.000;0.000;2023-07-09T03:31:27;23.50;72.60
47414;DHT22;33163;0.000;0.000;2023-07-09T03:33:54;23.50;72.60
47414;DHT22;33163;0.000;0.000;2023-07-09T03:36:20;23.50;72.60
47414;DHT22;33163;0.000;0.000;2023-07-09T03:38:49;23.40;72.70
47414;DHT22;33163;0.000;0.000;2023-07-09T03:41:16;23.40;72.60
47414;DHT22;33163;0.000;0.000;2023-07-09T03:43:43;23.50;72.80
47414;DHT22;33163;0.000;0.000;2023-07-09T03:46:10;23.50;72.80
47414;DHT22;33163;0.000;0.000;2023-07-09T03:48:37;23.50;72.80
47414;DHT22;33163;0.000;0.000;2023-07-09T03:51:03;23.50;72.70
47414;DHT22;33163;0.000;0.000;2023-07-09T03:53:30;23.40;72.80
47414;DHT22;33163;0.000;0.000;2023-07-09T03:55:58;23.50;72.80
47414;DHT22;33163;0.000;0.000;2023-07-09T03:58:26;23.40;72.80
47414;DHT22;33163;0.000;0.000;2023-07-09T04:00:53;23.50;72.80
47414;DHT22;33163;0.000;0.000;2023-07-09T04:03:20;23.50;72.70
47414;DHT22;33163;0.000;0.000;2023-07-09T04:05:47;23.40;72.60
47414;DHT22;33163;0.000;0.000;2023-07-09T04:08:14;23.50;72.70
47414;DHT22;33163;0.000;0.000;2023-07-09T04:10:41;23.50;72.80
47414;DHT22;33163;0.000;0.000;2023-07-09T04:13:09;23.40;72.70
47414;DHT22;33163;0.000;0.000;2023-07-09T04:15:36;23.40;72.70
47414;DHT22;33163;0.000;0.000;2023-07-09T04:18:03;23.50;72.80
47414;DHT22;33163;0.000;0.000;2023-07-09T04:20:30;23.40;72.70
47414;DHT22;33163;0.000;0.000;2023-07-09T04:22:56;23.40;72.70
47414;DHT22;33163;0.000;0.000;2023-07-09T04:25:23;23.50;72.70
47414;DHT22;33163;0.000;0.000;2023-07-09T04:27:50;23.50;72.80
47414;DHT22;33163;0.000;0.000;2023-07-09T04:30:18;23.50;72.80
47414;DHT22;33163;0.000;0.000;2023-07-09T04:32:45;23.40;72.80
47414;DHT22;33163;0.000;0.000;2023-07-09T04:35:13;23.40;72.90
47414;DHT22;33163;0.000;0.000;2023-07-09T04:37:40;23.40;72.80
47414;DHT22;33163;0.000;0.000;2023-07-09T04:40:08;23.40;72.70
47414;DHT22;33163;0.000;0.000;2023-07-09T04:42:36;23.40;72.70
47414;DHT22;33163;0.000;0.000;2023-07-09T04:45:04;23.50;72.80
47414;DHT22;33163;0.000;0.000;2023-07-09T04:47:32;23.50;72.80
47414;DHT22;33163;0.000;0.000;2023-07-09T04:49:59;23.40;72.70
47414;DHT22;33163;0.000;0.000;2023-07-09T04:52:25;23.40;72.80
47414;DHT22;33163;0.000;0.000;2023-07-09T04:54:52;23.40;73.00
47414;DHT22;33163;0.000;0.000;2023-07-09T04:57:19;23.40;72.80
47414;DHT22;33163;0.000;0.000;2023-07-09T04:59:46;23.40;72.70
47414;DHT22;33163;0.000;0.000;2023-07-09T05:02:14;23.40;72.80
47414;DHT22;33163;0.000;0.000;2023-07-09T05:04:42;23.50;72.90
47414;DHT22;33163;0.000;0.000;2023-07-09T05:07:09;23.50;72.90
47414;DHT22;33163;0.000;0.000;2023-07-09T05:09:36;23.50;72.80
47414;DHT22;33163;0.000;0.000;2023-07-09T05:12:03;23.50;72.80
47414;DHT22;33163;0.000;0.000;2023-07-09T05:14:30;23.50;72.80
47414;DHT22;33163;0.000;0.000;2023-07-09T05:16:56;23.50;72.70
47414;DHT22;33163;0.000;0.000;2023-07-09T05:19:23;23.50;72.70
47414;DHT22;33163;0.000;0.000;2023-07-09T05:21:51;23.50;72.80
47414;DHT22;33163;0.000;0.000;2023-07-09T05:24:18;23.50;72.80
47414;DHT22;33163;0.000;0.000;2023-07-09T05:26:45;23.50;72.90
47414;DHT22;33163;0.000;0.000;2023-07-09T05:29:11;23.50;73.00
47414;DHT22;33163;0.000;0.000;2023-07-09T05:31:38;23.50;73.00
47414;DHT22;33163;0.000;0.000;2023-07-09T05:34:07;23.50;73.10
47414;DHT22;33163;0.000;0.000;2023-07-09T05:36:34;23.40;73.10
47414;DHT22;33163;0.000;0.000;2023-07-09T05:39:02;23.50;73.20
47414;DHT22;33163;0.000;0.000;2023-07-09T05:41:29;23.50;73.30
47414;DHT22;33163;0.000;0.000;2023-07-09T05:43:56;23.40;73.30
47414;DHT22;33163;0.000;0.000;2023-07-09T05:46:23;23.40;73.30
47414;DHT22;33163;0.000;0.000;2023-07-09T05:48:50;23.40;73.50
47414;DHT22;33163;0.000;0.000;2023-07-09T05:51:17;23.40;73.40
47414;DHT22;33163;0.000;0.000;2023-07-09T05:53:44;23.40;73.60
47414;DHT22;33163;0.000;0.000;2023-07-09T05:56:12;23.40;73.70
47414;DHT22;33163;0.000;0.000;2023-07-09T05:58:39;23.40;73.80
47414;DHT22;33163;0.000;0.000;2023-07-09T06:01:05;23.40;73.90
47414;DHT22;33163;0.000;0.000;2023-07-09T06:03:32;23.40;74.10
47414;DHT22;33163;0.000;0.000;2023-07-09T06:05:59;23.40;73.90
47414;DHT22;33163;0.000;0.000;2023-07-09T06:08:26;23.40;74.10
47414;DHT22;33163;0.000;0.000;2023-07-09T06:10:54;23.40;74.10
47414;DHT22;33163;0.000;0.000;2023-07-09T06:13:23;23.40;74.10
47414;DHT22;33163;0.000;0.000;2023-07-09T06:15:51;23.40;74.00
47414;DHT22;33163;0.000;0.000;2023-07-09T06:18:18;23.40;74.00
47414;DHT22;33163;0.000;0.000;2023-07-09T06:20:49;23.40;74.10
47414;DHT22;33163;0.000;0.000;2023-07-09T06:23:16;23.40;73.90
47414;DHT22;33163;0.000;0.000;2023-07-09T06:25:44;23.40;74.00
47414;DHT22;33163;0.000;0.000;2023-07-09T06:28:13;23.40;74.00
47414;DHT22;33163;0.000;0.000;2023-07-09T06:30:42;23.40;74.00
47414;DHT22;33163;0.000;0.000;2023-07-09T06:33:09;23.50;74.00
47414;DHT22;33163;0.000;0.000;2023-07-09T06:35:36;23.40;74.00
47414;DHT22;33163;0.000;0.000;2023-07-09T06:38:03;23.40;74.10
47414;DHT22;33163;0.000;0.000;2023-07-09T06:40:29;23.40;74.10
47414;DHT22;33163;0.000;0.000;2023-07-09T06:42:56;23.40;74.10
47414;DHT22;33163;0.000;0.000;2023-07-09T06:45:23;23.40;74.70
47414;DHT22;33163;0.000;0.000;2023-07-09T06:47:51;23.40;74.10
47414;DHT22;33163;0.000;0.000;2023-07-09T06:50:18;23.40;74.00
47414;DHT22;33163;0.000;0.000;2023-07-09T06:52:45;23.40;73.90
47414;DHT22;33163;0.000;0.000;2023-07-09T06:55:11;23.50;73.80
47414;DHT22;33163;0.000;0.000;2023-07-09T06:57:38;23.50;73.80
47414;DHT22;33163;0.000;0.000;2023-07-09T07:00:06;23.50;73.60
47414;DHT22;33163;0.000;0.000;2023-07-09T07:02:33;23.50;73.60
47414;DHT22;33163;0.000;0.000;2023-07-09T07:05:02;23.50;73.50
47414;DHT22;33163;0.000;0.000;2023-07-09T07:07:28;23.50;73.50
47414;DHT22;33163;0.000;0.000;2023-07-09T07:09:55;23.50;73.40
47414;DHT22;33163;0.000;0.000;2023-07-09T07:12:28;23.50;73.40
47414;DHT22;33163;0.000;0.000;2023-07-09T07:14:55;23.50;73.30
47414;DHT22;33163;0.000;0.000;2023-07-09T07:17:22;23.50;73.30
47414;DHT22;33163;0.000;0.000;2023-07-09T07:19:50;23.50;73.20
47414;DHT22;33163;0.000;0.000;2023-07-09T07:22:18;23.50;73.00
47414;DHT22;33163;0.000;0.000;2023-07-09T07:24:45;23.50;73.20
47414;DHT22;33163;0.000;0.000;2023-07-09T07:27:11;23.50;73.10
47414;DHT22;33163;0.000;0.000;2023-07-09T07:29:38;23.50;73.00
47414;DHT22;33163;0.000;0.000;2023-07-09T07:32:06;23.60;73.00
47414;DHT22;33163;0.000;0.000;2023-07-09T07:34:34;23.60;73.00
47414;DHT22;33163;0.000;0.000;2023-07-09T07:37:00;23.60;73.10
47414;DHT22;33163;0.000;0.000;2023-07-09T07:39:28;23.60;73.10
47414;DHT22;33163;0.000;0.000;2023-07-09T07:41:55;23.60;73.20
47414;DHT22;33163;0.000;0.000;2023-07-09T07:44:22;23.60;73.30
47414;DHT22;33163;0.000;0.000;2023-07-09T07:46:49;23.60;73.70
47414;DHT22;33163;0.000;0.000;2023-07-09T07:49:16;23.70;73.40
47414;DHT22;33163;0.000;0.000;2023-07-09T07:51:43;23.70;73.50
47414;DHT22;33163;0.000;0.000;2023-07-09T07:54:09;23.70;73.70
47414;DHT22;33163;0.000;0.000;2023-07-09T07:56:38;23.70;73.50
47414;DHT22;33163;0.000;0.000;2023-07-09T07:59:04;23.70;73.50
47414;DHT22;33163;0.000;0.000;2023-07-09T08:01:31;23.70;73.50
47414;DHT22;33163;0.000;0.000;2023-07-09T08:04:00;23.70;73.60
47414;DHT22;33163;0.000;0.000;2023-07-09T08:06:27;23.70;73.60
47414;DHT22;33163;0.000;0.000;2023-07-09T08:08:54;23.70;73.50
47414;DHT22;33163;0.000;0.000;2023-07-09T08:11:20;23.70;73.60
47414;DHT22;33163;0.000;0.000;2023-07-09T08:13:49;23.70;73.50
47414;DHT22;33163;0.000;0.000;2023-07-09T08:16:15;23.70;73.60
47414;DHT22;33163;0.000;0.000;2023-07-09T08:18:42;23.70;73.50
47414;DHT22;33163;0.000;0.000;2023-07-09T08:21:09;23.70;73.60
47414;DHT22;33163;0.000;0.000;2023-07-09T08:23:36;23.70;73.60
47414;DHT22;33163;0.000;0.000;2023-07-09T08:26:04;23.70;73.60
47414;DHT22;33163;0.000;0.000;2023-07-09T08:28:31;23.70;73.60
47414;DHT22;33163;0.000;0.000;2023-07-09T08:30:59;23.70;73.60
47414;DHT22;33163;0.000;0.000;2023-07-09T08:33:26;23.70;73.50
47414;DHT22;33163;0.000;0.000;2023-07-09T08:35:54;23.70;73.50
47414;DHT22;33163;0.000;0.000;2023-07-09T08:38:21;23.70;73.50
47414;DHT22;33163;0.000;0.000;2023-07-09T08:40:57;23.70;73.60
47414;DHT22;33163;0.000;0.000;2023-07-09T08:43:35;23.70;73.50
47414;DHT22;33163;0.000;0.000;2023-07-09T08:46:12;23.70;74.30
47414;DHT22;33163;0.000;0.000;2023-07-09T08:48:45;23.70;73.40
47414;DHT22;33163;0.000;0.000;2023-07-09T08:51:19;23.70;73.50
47414;DHT22;33163;0.000;0.000;2023-07-09T08:53:48;23.70;73.40
47414;DHT22;33163;0.000;0.000;2023-07-09T08:56:16;23.70;73.30
47414;DHT22;33163;0.000;0.000;2023-07-09T08:58:44;23.70;73.40
47414;DHT22;33163;0.000;0.000;2023-07-09T09:01:18;23.70;73.30
47414;DHT22;33163;0.000;0.000;2023-07-09T09:03:48;23.80;73.20
47414;DHT22;33163;0.000;0.000;2023-07-09T09:06:18;23.70;73.10
47414;DHT22;33163;0.000;0.000;2023-07-09T09:08:54;23.80;73.90
47414;DHT22;33163;0.000;0.000;2023-07-09T09:11:31;23.80;73.20
47414;DHT22;33163;0.000;0.000;2023-07-09T09:14:02;23.80;73.20
47414;DHT22;33163;0.000;0.000;2023-07-09T09:16:36;23.80;73.10
47414;DHT22;33163;0.000;0.000;2023-07-09T09:19:13;23.80;73.10
47414;DHT22;33163;0.000;0.000;2023-07-09T09:21:42;23.80;73.20
47414;DHT22;33163;0.000;0.000;2023-07-09T09:24:16;23.80;73.10
47414;DHT22;33163;0.000;0.000;2023-07-09T09:26:44;23.80;73.10
47414;DHT22;33163;0.000;0.000;2023-07-09T09:29:13;23.80;73.10
47414;DHT22;33163;0.000;0.000;2023-07-09T09:31:43;23.80;73.10
47414;DHT22;33163;0.000;0.000;2023-07-09T09:34:17;23.80;73.10
47414;DHT22;33163;0.000;0.000;2023-07-09T09:36:44;23.90;73.20
47414;DHT22;33163;0.000;0.000;2023-07-09T09:39:11;23.90;73.20
47414;DHT22;33163;0.000;0.000;2023-07-09T09:41:38;23.80;73.10
47414;DHT22;33163;0.000;0.000;2023-07-09T09:44:05;23.90;73.20
47414;DHT22;33163;0.000;0.000;2023-07-09T09:46:44;23.90;73.00
47414;DHT22;33163;0.000;0.000;2023-07-09T09:49:11;23.80;73.20
47414;DHT22;33163;0.000;0.000;2023-07-09T09:51:40;23.90;73.30
47414;DHT22;33163;0.000;0.000;2023-07-09T09:54:16;23.90;73.30
47414;DHT22;33163;0.000;0.000;2023-07-09T09:56:43;23.90;73.30
47414;DHT22;33163;0.000;0.000;2023-07-09T09:59:17;23.90;73.20
47414;DHT22;33163;0.000;0.000;2023-07-09T10:01:46;24.00;73.50
47414;DHT22;33163;0.000;0.000;2023-07-09T10:04:17;23.90;73.40
47414;DHT22;33163;0.000;0.000;2023-07-09T10:06:46;24.00;73.40
47414;DHT22;33163;0.000;0.000;2023-07-09T10:09:36;24.00;73.50
47414;DHT22;33163;0.000;0.000;2023-07-09T10:12:12;24.00;73.60
47414;DHT22;33163;0.000;0.000;2023-07-09T10:14:49;24.00;73.50
47414;DHT22;33163;0.000;0.000;2023-07-09T10:17:22;24.00;73.50
47414;DHT22;33163;0.000;0.000;2023-07-09T10:19:57;24.00;73.50
47414;DHT22;33163;0.000;0.000;2023-07-09T10:22:37;24.00;73.50
47414;DHT22;33163;0.000;0.000;2023-07-09T10:25:13;24.00;73.50
47414;DHT22;33163;0.000;0.000;2023-07-09T10:27:51;24.00;73.60
47414;DHT22;33163;0.000;0.000;2023-07-09T10:30:35;24.00;73.60
47414;DHT22;33163;0.000;0.000;2023-07-09T10:33:10;24.00;73.70
47414;DHT22;33163;0.000;0.000;2023-07-09T10:35:45;24.00;73.50
47414;DHT22;33163;0.000;0.000;2023-07-09T10:38:21;24.00;73.60
47414;DHT22;33163;0.000;0.000;2023-07-09T10:40:51;24.10;73.80
47414;DHT22;33163;0.000;0.000;2023-07-09T10:43:25;24.00;73.70
47414;DHT22;33163;0.000;0.000;2023-07-09T10:45:58;24.10;73.60
47414;DHT22;33163;0.000;0.000;2023-07-09T10:48:33;24.00;74.00
47414;DHT22;33163;0.000;0.000;2023-07-09T10:51:02;24.10;74.00
47414;DHT22;33163;0.000;0.000;2023-07-09T10:53:33;24.10;73.80
47414;DHT22;33163;0.000;0.000;2023-07-09T10:56:07;24.10;73.70
47414;DHT22;33163;0.000;0.000;2023-07-09T10:58:40;24.10;73.80
47414;DHT22;33163;0.000;0.000;2023-07-09T11:01:12;24.10;74.10
47414;DHT22;33163;0.000;0.000;2023-07-09T11:03:44;24.10;73.80
47414;DHT22;33163;0.000;0.000;2023-07-09T11:06:19;24.20;73.70
47414;DHT22;33163;0.000;0.000;2023-07-09T11:08:49;24.20;73.50
47414;DHT22;33163;0.000;0.000;2023-07-09T11:11:24;24.20;73.30
47414;DHT22;33163;0.000;0.000;2023-07-09T11:13:54;24.30;73.30
47414;DHT22;33163;0.000;0.000;2023-07-09T11:16:28;24.20;73.80
47414;DHT22;33163;0.000;0.000;2023-07-09T11:18:59;24.20;73.70
47414;DHT22;33163;0.000;0.000;2023-07-09T11:21:27;24.20;73.70
47414;DHT22;33163;0.000;0.000;2023-07-09T11:23:56;24.20;73.60
47414;DHT22;33163;0.000;0.000;2023-07-09T11:26:26;24.20;73.80
47414;DHT22;33163;0.000;0.000;2023-07-09T11:28:55;24.20;73.90
47414;DHT22;33163;0.000;0.000;2023-07-09T11:31:24;24.20;74.20
47414;DHT22;33163;0.000;0.000;2023-07-09T11:34:02;24.20;74.30
47414;DHT22;33163;0.000;0.000;2023-07-09T11:36:30;24.20;74.30
47414;DHT22;33163;0.000;0.000;2023-07-09T11:38:57;24.20;74.20
47414;DHT22;33163;0.000;0.000;2023-07-09T11:41:37;24.20;74.10
47414;DHT22;33163;0.000;0.000;2023-07-09T11:44:12;24.20;73.90
47414;DHT22;33163;0.000;0.000;2023-07-09T11:46:52;24.20;74.30
47414;DHT22;33163;0.000;0.000;2023-07-09T11:49:25;24.30;74.20
47414;DHT22;33163;0.000;0.000;2023-07-09T11:51:55;24.30;74.10
47414;DHT22;33163;0.000;0.000;2023-07-09T11:54:24;24.20;74.20
47414;DHT22;33163;0.000;0.000;2023-07-09T11:56:55;24.30;74.30
47414;DHT22;33163;0.000;0.000;2023-07-09T11:59:22;24.30;74.10
47414;DHT22;33163;0.000;0.000;2023-07-09T12:01:50;24.30;74.60
47414;DHT22;33163;0.000;0.000;2023-07-09T12:04:23;24.30;75.30
47414;DHT22;33163;0.000;0.000;2023-07-09T12:06:52;24.20;75.00
47414;DHT22;33163;0.000;0.000;2023-07-09T12:09:23;24.20;75.00
47414;DHT22;33163;0.000;0.000;2023-07-09T12:11:50;24.20;75.30
47414;DHT22;33163;0.000;0.000;2023-07-09T12:14:19;24.20;75.50
47414;DHT22;33163;0.000;0.000;2023-07-09T12:16:47;24.20;75.40
47414;DHT22;33163;0.000;0.000;2023-07-09T12:19:16;24.20;75.50
47414;DHT22;33163;0.000;0.000;2023-07-09T12:21:45;24.20;75.40
47414;DHT22;33163;0.000;0.000;2023-07-09T12:24:19;24.20;75.50
47414;DHT22;33163;0.000;0.000;2023-07-09T12:26:51;24.20;75.50
47414;DHT22;33163;0.000;0.000;2023-07-09T12:29:18;24.20;75.50
47414;DHT22;33163;0.000;0.000;2023-07-09T12:31:45;24.20;75.40
47414;DHT22;33163;0.000;0.000;2023-07-09T12:34:13;24.20;75.50
47414;DHT22;33163;0.000;0.000;2023-07-09T12:36:44;24.20;75.50
47414;DHT22;33163;0.000;0.000;2023-07-09T12:39:13;24.20;75.60
47414;DHT22;33163;0.000;0.000;2023-07-09T12:41:42;24.20;75.60
47414;DHT22;33163;0.000;0.000;2023-07-09T12:44:18;24.20;75.80
47414;DHT22;33163;0.000;0.000;2023-07-09T12:46:47;24.20;75.90
47414;DHT22;33163;0.000;0.000;2023-07-09T12:49:22;24.20;76.10
47414;DHT22;33163;0.000;0.000;2023-07-09T12:51:51;24.20;76.90
47414;DHT22;33163;0.000;0.000;2023-07-09T12:54:20;24.20;76.30
47414;DHT22;33163;0.000;0.000;2023-07-09T12:56:50;24.20;76.30
47414;DHT22;33163;0.000;0.000;2023-07-09T12:59:19;24.20;76.20
47414;DHT22;33163;0.000;0.000;2023-07-09T13:01:54;24.20;76.10
47414;DHT22;33163;0.000;0.000;2023-07-09T13:04:21;24.20;76.10
47414;DHT22;33163;0.000;0.000;2023-07-09T13:06:48;24.20;76.10
47414;DHT22;33163;0.000;0.000;2023-07-09T13:09:21;24.20;76.00
47414;DHT22;33163;0.000;0.000;2023-07-09T13:11:48;24.20;76.00
47414;DHT22;33163;0.000;0.000;2023-07-09T13:14:19;24.20;76.00
47414;DHT22;33163;0.000;0.000;2023-07-09T13:16:46;24.20;75.90
47414;DHT22;33163;0.000;0.000;2023-07-09T13:19:13;24.20;76.30
47414;DHT22;33163;0.000;0.000;2023-07-09T13:21:40;24.20;75.90
47414;DHT22;33163;0.000;0.000;2023-07-09T13:24:13;24.20;75.90
47414;DHT22;33163;0.000;0.000;2023-07-09T13:26:41;24.20;75.90
47414;DHT22;33163;0.000;0.000;2023-07-09T13:29:13;24.20;75.90
47414;DHT22;33163;0.000;0.000;2023-07-09T13:31:41;24.20;75.90
47414;DHT22;33163;0.000;0.000;2023-07-09T13:34:17;24.10;75.80
47414;DHT22;33163;0.000;0.000;2023-07-09T13:36:45;24.20;75.80
47414;DHT22;33163;0.000;0.000;2023-07-09T13:39:12;24.10;75.70
47414;DHT22;33163;0.000;0.000;2023-07-09T13:41:39;24.10;75.60
47414;DHT22;33163;0.000;0.000;2023-07-09T13:44:12;24.10;75.10
47414;DHT22;33163;0.000;0.000;2023-07-09T13:46:39;24.10;75.10
47414;DHT22;33163;0.000;0.000;2023-07-09T13:49:09;24.10;75.00
47414;DHT22;33163;0.000;0.000;2023-07-09T13:51:36;24.10;74.80
47414;DHT22;33163;0.000;0.000;2023-07-09T13:54:09;24.10;74.90
47414;DHT22;33163;0.000;0.000;2023-07-09T13:56:39;24.10;74.80
47414;DHT22;33163;0.000;0.000;2023-07-09T13:59:14;24.10;74.80
47414;DHT22;33163;0.000;0.000;2023-07-09T14:01:41;24.10;74.80
47414;DHT22;33163;0.000;0.000;2023-07-09T14:04:09;24.10;74.80
47414;DHT22;33163;0.000;0.000;2023-07-09T14:06:37;24.10;74.90
47414;DHT22;33163;0.000;0.000;2023-07-09T14:09:05;24.10;74.70
47414;DHT22;33163;0.000;0.000;2023-07-09T14:11:32;24.10;74.70
47414;DHT22;33163;0.000;0.000;2023-07-09T14:13:59;24.10;74.80
47414;DHT22;33163;0.000;0.000;2023-07-09T14:16:27;24.00;74.70
47414;DHT22;33163;0.000;0.000;2023-07-09T14:18:54;24.00;74.80
47414;DHT22;33163;0.000;0.000;2023-07-09T14:21:24;24.00;74.80
47414;DHT22;33163;0.000;0.000;2023-07-09T14:23:51;24.00;74.80
47414;DHT22;33163;0.000;0.000;2023-07-09T14:26:18;24.00;75.00
47414;DHT22;33163;0.000;0.000;2023-07-09T14:28:45;24.00;75.30
47414;DHT22;33163;0.000;0.000;2023-07-09T14:31:21;24.00;75.20
47414;DHT22;33163;0.000;0.000;2023-07-09T14:33:51;24.00;75.40
47414;DHT22;33163;0.000;0.000;2023-07-09T14:36:17;24.00;75.60
47414;DHT22;33163;0.000;0.000;2023-07-09T14:38:44;24.00;76.10
47414;DHT22;33163;0.000;0.000;2023-07-09T14:41:19;23.90;76.80
47414;DHT22;33163;0.000;0.000;2023-07-09T14:43:47;24.00;77.70
47414;DHT22;33163;0.000;0.000;2023-07-09T14:46:14;24.00;77.40
47414;DHT22;33163;0.000;0.000;2023-07-09T14:48:41;24.00;77.50
47414;DHT22;33163;0.000;0.000;2023-07-09T14:51:14;24.00;78.30
47414;DHT22;33163;0.000;0.000;2023-07-09T14:53:41;23.90;78.80
47414;DHT22;33163;0.000;0.000;2023-07-09T14:56:10;24.00;80.50
47414;DHT22;33163;0.000;0.000;2023-07-09T14:58:37;24.00;80.90
47414;DHT22;33163;0.000;0.000;2023-07-09T15:01:04;24.00;80.30
47414;DHT22;33163;0.000;0.000;2023-07-09T15:03:31;24.00;81.00
47414;DHT22;33163;0.000;0.000;2023-07-09T15:05:58;24.00;80.30
47414;DHT22;33163;0.000;0.000;2023-07-09T15:08:26;24.10;79.80
47414;DHT22;33163;0.000;0.000;2023-07-09T15:10:53;24.10;79.30
47414;DHT22;33163;0.000;0.000;2023-07-09T15:13:27;24.10;78.70
47414;DHT22;33163;0.000;0.000;2023-07-09T15:15:55;24.20;78.10
47414;DHT22;33163;0.000;0.000;2023-07-09T15:18:22;24.20;78.10
47414;DHT22;33163;0.000;0.000;2023-07-09T15:20:51;24.20;77.90
47414;DHT22;33163;0.000;0.000;2023-07-09T15:23:18;24.20;77.70
47414;DHT22;33163;0.000;0.000;2023-07-09T15:25:49;24.20;77.70
47414;DHT22;33163;0.000;0.000;2023-07-09T15:28:16;24.20;77.60
47414;DHT22;33163;0.000;0.000;2023-07-09T15:30:44;24.20;77.60
47414;DHT22;33163;0.000;0.000;2023-07-09T15:33:13;24.20;77.50
47414;DHT22;33163;0.000;0.000;2023-07-09T15:35:41;24.20;77.50
47414;DHT22;33163;0.000;0.000;2023-07-09T15:38:27;24.20;77.40
47414;DHT22;33163;0.000;0.000;2023-07-09T15:40:56;24.20;77.40
47414;DHT22;33163;0.000;0.000;2023-07-09T15:43:24;24.20;77.40
47414;DHT22;33163;0.000;0.000;2023-07-09T15:45:53;24.20;77.30
47414;DHT22;33163;0.000;0.000;2023-07-09T15:48:25;24.20;77.20
47414;DHT22;33163;0.000;0.000;2023-07-09T15:50:52;24.20;77.40
47414;DHT22;33163;0.000;0.000;2023-07-09T15:53:20;24.20;77.20
47414;DHT22;33163;0.000;0.000;2023-07-09T15:55:47;24.20;77.70